createdAt,value
2019-03-27T00:00:20.652Z,94.70
2019-03-27T00:02:49.135Z,94.90
2019-03-27T00:05:17.546Z,95.10
2019-03-27T00:07:46.028Z,95.20
2019-03-27T00:10:14.587Z,95.30
2019-03-27T00:12:43.027Z,95.50
2019-03-27T00:15:13.713Z,95.50
2019-03-27T00:17:41.527Z,95.50
2019-03-27T00:20:10.320Z,95.50
2019-03-27T00:22:38.692Z,95.60
2019-03-27T00:25:10.093Z,95.50
2019-03-27T00:27:38.512Z,95.50
2019-03-27T00:30:08.277Z,95.60
2019-03-27T00:32:36.710Z,95.80
2019-03-27T00:35:06.294Z,95.50
2019-03-27T00:37:34.697Z,95.60
2019-03-27T00:40:04.046Z,95.70
2019-03-27T00:42:32.523Z,95.30
2019-03-27T00:45:01.137Z,95.00
2019-03-27T00:47:29.570Z,94.80
2019-03-27T00:49:57.993Z,94.60
2019-03-27T00:52:26.365Z,94.70
2019-03-27T00:54:54.846Z,95.10
2019-03-27T00:57:23.259Z,95.40
2019-03-27T00:59:51.669Z,95.80
2019-03-27T01:02:20.091Z,95.60
2019-03-27T01:04:48.461Z,96.00
2019-03-27T01:07:16.902Z,95.70
2019-03-27T01:09:45.284Z,95.90
2019-03-27T01:12:13.726Z,95.80
2019-03-27T01:14:42.250Z,95.90
2019-03-27T01:17:10.637Z,96.20
2019-03-27T01:19:39.071Z,96.60
2019-03-27T01:22:07.460Z,96.40
2019-03-27T01:24:35.957Z,96.50
2019-03-27T01:27:04.352Z,96.70
2019-03-27T01:29:32.743Z,97.50
2019-03-27T01:32:01.108Z,97.60
2019-03-27T01:34:29.560Z,98.20
2019-03-27T01:36:57.932Z,98.40
2019-03-27T01:39:26.321Z,98.50
2019-03-27T01:41:54.703Z,98.40
2019-03-27T01:44:23.203Z,98.50
2019-03-27T01:46:51.616Z,99.10
2019-03-27T01:49:20.030Z,99.90
2019-03-27T01:51:48.445Z,99.80
2019-03-27T01:54:16.841Z,99.60
2019-03-27T01:56:45.299Z,99.50
2019-03-27T01:59:13.778Z,99.60
2019-03-27T02:01:42.192Z,99.90
2019-03-27T02:04:10.566Z,99.90
2019-03-27T02:06:38.984Z,99.90
2019-03-27T02:09:07.604Z,99.90
2019-03-27T02:11:36.000Z,99.90
2019-03-27T02:14:04.411Z,99.90
2019-03-27T02:16:32.846Z,99.90
2019-03-27T02:19:01.317Z,99.90
2019-03-27T02:21:29.754Z,99.90
2019-03-27T02:23:58.208Z,99.90
2019-03-27T02:26:26.663Z,99.90
2019-03-27T02:28:55.065Z,99.90
2019-03-27T02:31:23.525Z,99.90
2019-03-27T02:33:52.110Z,99.90
2019-03-27T02:36:20.589Z,99.90
2019-03-27T02:38:48.968Z,99.90
2019-03-27T02:41:17.383Z,99.90
2019-03-27T02:43:45.821Z,99.90
2019-03-27T02:46:24.587Z,99.90
2019-03-27T02:48:44.375Z,99.90
2019-03-27T02:51:12.913Z,99.90
2019-03-27T02:53:41.322Z,99.90
2019-03-27T02:56:09.731Z,99.90
2019-03-27T02:58:38.126Z,99.90
2019-03-27T03:01:06.588Z,99.90
2019-03-27T03:03:35.007Z,99.90
2019-03-27T03:06:03.400Z,99.90
2019-03-27T03:08:31.818Z,99.90
2019-03-27T03:11:00.230Z,99.90
2019-03-27T03:13:28.644Z,99.90
2019-03-27T03:15:57.059Z,99.90
2019-03-27T03:18:25.486Z,99.90
2019-03-27T03:20:53.860Z,99.90
2019-03-27T03:23:22.253Z,99.90
2019-03-27T03:25:50.718Z,99.90
2019-03-27T03:28:19.085Z,99.90
2019-03-27T03:30:47.512Z,99.90
2019-03-27T03:33:15.858Z,99.90
2019-03-27T03:35:44.279Z,99.90
2019-03-27T03:38:12.815Z,99.90
2019-03-27T03:40:41.216Z,99.90
2019-03-27T03:43:09.651Z,99.90
2019-03-27T03:45:38.067Z,99.90
2019-03-27T03:48:06.446Z,99.90
2019-03-27T03:50:39.427Z,99.90
2019-03-27T03:53:09.480Z,99.90
2019-03-27T03:55:38.278Z,99.90
2019-03-27T03:58:12.770Z,99.90
2019-03-27T04:00:41.181Z,99.90
2019-03-27T04:03:09.566Z,99.90
2019-03-27T04:05:37.992Z,99.90
2019-03-27T04:08:06.405Z,99.90
2019-03-27T04:10:34.809Z,99.90
2019-03-27T04:13:03.278Z,99.90
2019-03-27T04:15:31.659Z,99.90
2019-03-27T04:18:00.190Z,99.90
2019-03-27T04:20:28.696Z,99.90
2019-03-27T04:22:57.141Z,99.90
2019-03-27T04:25:25.574Z,99.90
2019-03-27T04:27:54.031Z,99.90
2019-03-27T04:30:22.470Z,99.90
2019-03-27T04:32:50.966Z,99.90
2019-03-27T04:35:19.342Z,99.90
2019-03-27T04:37:47.758Z,99.90
2019-03-27T04:40:16.190Z,99.90
2019-03-27T04:42:44.601Z,99.90
2019-03-27T04:45:13.053Z,99.90
2019-03-27T04:47:41.442Z,99.70
2019-03-27T04:50:09.922Z,99.60
2019-03-27T04:52:38.375Z,98.90
2019-03-27T04:55:06.818Z,99.20
2019-03-27T04:57:35.234Z,99.30
2019-03-27T05:00:06.343Z,99.30
2019-03-27T05:02:34.795Z,98.00
2019-03-27T05:05:04.639Z,98.30
2019-03-27T05:07:33.056Z,96.80
2019-03-27T05:10:01.468Z,95.40
2019-03-27T05:12:29.847Z,95.30
2019-03-27T05:14:58.221Z,95.70
2019-03-27T05:17:26.728Z,94.60
2019-03-27T05:19:55.210Z,92.20
2019-03-27T05:22:23.542Z,90.60
2019-03-27T05:24:51.955Z,91.60
2019-03-27T05:27:20.333Z,93.40
2019-03-27T05:29:48.774Z,91.30
2019-03-27T05:32:17.154Z,88.90
2019-03-27T05:34:45.658Z,78.20
2019-03-27T05:37:14.067Z,68.30
2019-03-27T05:39:42.538Z,68.40
2019-03-27T05:42:11.030Z,68.20
2019-03-27T05:44:39.392Z,71.00
2019-03-27T05:47:07.760Z,69.80
2019-03-27T05:49:36.227Z,71.50
2019-03-27T05:52:04.651Z,74.30
2019-03-27T05:54:33.195Z,76.10
2019-03-27T05:57:01.591Z,78.10
2019-03-27T05:59:29.993Z,77.40
2019-03-27T06:01:58.413Z,74.70
2019-03-27T06:04:26.910Z,71.70
2019-03-27T06:06:55.307Z,69.00
2019-03-27T06:09:23.697Z,68.70
2019-03-27T06:11:52.138Z,66.10
2019-03-27T06:14:20.598Z,64.30
2019-03-27T06:16:49.008Z,61.40
2019-03-27T06:19:17.434Z,58.80
2019-03-27T06:21:45.797Z,58.30
2019-03-27T06:24:14.344Z,58.20
2019-03-27T06:26:42.765Z,59.60
2019-03-27T06:29:11.158Z,62.00
2019-03-27T06:31:39.601Z,62.70
2019-03-27T06:34:07.960Z,63.70
2019-03-27T06:36:36.337Z,64.10
2019-03-27T06:39:05.827Z,62.20
2019-03-27T06:41:34.200Z,57.70
2019-03-27T06:44:02.622Z,53.00
2019-03-27T06:46:31.027Z,49.00
2019-03-27T06:48:59.497Z,42.70
2019-03-27T06:51:39.501Z,38.20
2019-03-27T06:53:57.960Z,37.20
2019-03-27T06:56:26.442Z,37.50
2019-03-27T06:58:55.224Z,33.80
2019-03-27T07:01:23.680Z,31.40
2019-03-27T07:03:52.097Z,29.70
2019-03-27T07:06:20.582Z,33.10
2019-03-27T07:08:48.998Z,34.00
2019-03-27T07:11:17.467Z,30.80
2019-03-27T07:13:45.890Z,30.10
2019-03-27T07:16:14.381Z,29.40
2019-03-27T07:18:42.792Z,32.20
2019-03-27T07:21:11.221Z,35.70
2019-03-27T07:23:39.611Z,34.30
2019-03-27T07:26:08.060Z,35.70
2019-03-27T07:28:36.478Z,40.50
2019-03-27T07:31:04.975Z,43.30
2019-03-27T07:33:33.382Z,44.60
2019-03-27T07:36:01.714Z,46.70
2019-03-27T07:38:30.121Z,48.40
2019-03-27T07:40:58.592Z,47.10
2019-03-27T07:43:27.019Z,43.70
2019-03-27T07:45:55.432Z,45.40
2019-03-27T07:48:23.835Z,47.60
2019-03-27T07:50:52.240Z,50.80
2019-03-27T07:53:22.421Z,53.10
2019-03-27T07:55:50.875Z,55.10
2019-03-27T07:58:19.281Z,53.20
2019-03-27T08:00:47.809Z,46.30
2019-03-27T08:03:16.203Z,41.30
2019-03-27T08:05:44.668Z,37.30
2019-03-27T08:08:13.085Z,32.50
2019-03-27T08:10:42.554Z,31.80
2019-03-27T08:13:10.933Z,35.30
2019-03-27T08:15:40.837Z,34.20
2019-03-27T08:18:09.588Z,36.20
2019-03-27T08:20:37.982Z,39.70
2019-03-27T08:23:06.400Z,38.60
2019-03-27T08:25:34.839Z,38.80
2019-03-27T08:28:03.249Z,39.10
2019-03-27T08:30:31.669Z,37.50
2019-03-27T08:33:00.070Z,35.80
2019-03-27T08:35:28.456Z,33.90
2019-03-27T08:37:56.837Z,29.30
2019-03-27T08:40:25.221Z,26.10
2019-03-27T08:42:53.606Z,26.20
2019-03-27T08:45:22.043Z,25.50
2019-03-27T08:47:50.520Z,24.10
2019-03-27T08:50:18.950Z,22.70
2019-03-27T08:52:47.354Z,22.90
2019-03-27T08:55:15.769Z,23.30
2019-03-27T08:57:44.202Z,23.10
2019-03-27T09:00:13.182Z,22.60
2019-03-27T09:02:41.591Z,24.40
2019-03-27T09:05:10.010Z,25.10
2019-03-27T09:07:38.425Z,26.50
2019-03-27T09:10:07.393Z,26.10
2019-03-27T09:12:36.383Z,26.90
2019-03-27T09:15:06.714Z,27.40
2019-03-27T09:17:35.112Z,27.10
2019-03-27T09:20:04.679Z,27.50
2019-03-27T09:22:33.085Z,27.50
2019-03-27T09:25:01.667Z,25.60
2019-03-27T09:27:30.060Z,27.70
2019-03-27T09:29:58.467Z,28.40
2019-03-27T09:32:26.994Z,27.30
2019-03-27T09:34:55.402Z,28.60
2019-03-27T09:37:23.839Z,28.20
2019-03-27T09:39:52.226Z,28.10
2019-03-27T09:42:20.625Z,27.00
2019-03-27T09:44:49.039Z,27.50
2019-03-27T09:47:17.470Z,27.30
2019-03-27T09:49:49.716Z,28.70
2019-03-27T09:52:15.932Z,28.30
2019-03-27T09:54:44.410Z,28.00
2019-03-27T09:57:12.790Z,27.30
2019-03-27T09:59:41.169Z,26.20
2019-03-27T10:02:09.620Z,28.20
2019-03-27T10:04:38.018Z,28.40
2019-03-27T10:07:06.454Z,30.40
2019-03-27T10:09:34.853Z,29.20
2019-03-27T10:12:03.255Z,29.30
2019-03-27T10:14:31.686Z,30.70
2019-03-27T10:17:00.046Z,29.90
2019-03-27T10:19:28.429Z,31.80
2019-03-27T10:21:56.920Z,34.40
2019-03-27T10:24:25.403Z,36.00
2019-03-27T10:26:53.775Z,34.80
2019-03-27T10:29:22.189Z,32.20
2019-03-27T10:31:50.570Z,32.30
2019-03-27T10:34:18.978Z,33.90
2019-03-27T10:36:47.353Z,34.30
2019-03-27T10:39:15.753Z,35.30
2019-03-27T10:41:44.134Z,35.00
2019-03-27T10:44:12.541Z,38.70
2019-03-27T10:46:40.909Z,37.60
2019-03-27T10:49:09.313Z,38.60
2019-03-27T10:51:37.710Z,37.70
2019-03-27T10:54:06.113Z,38.30
2019-03-27T10:56:34.515Z,36.90
2019-03-27T10:59:02.913Z,38.00
2019-03-27T11:01:31.315Z,37.00
2019-03-27T11:03:59.797Z,36.60
2019-03-27T11:06:28.141Z,37.50
2019-03-27T11:08:56.554Z,37.20
2019-03-27T11:11:24.994Z,35.90
2019-03-27T11:13:53.385Z,37.00
2019-03-27T11:16:21.866Z,38.40
2019-03-27T11:18:50.257Z,37.10
2019-03-27T11:21:18.691Z,37.20
2019-03-27T11:23:47.123Z,38.80
2019-03-27T11:26:15.509Z,38.50
2019-03-27T11:28:44.062Z,37.20
2019-03-27T11:31:12.421Z,38.90
2019-03-27T11:33:40.923Z,38.00
2019-03-27T11:36:09.402Z,39.40
2019-03-27T11:38:37.926Z,39.30
2019-03-27T11:41:06.387Z,39.70
2019-03-27T11:43:34.794Z,39.20
2019-03-27T11:46:03.206Z,38.90
2019-03-27T11:48:31.615Z,38.70
2019-03-27T11:50:59.988Z,40.70
2019-03-27T11:53:28.427Z,38.70
2019-03-27T11:55:56.824Z,39.30
2019-03-27T11:58:25.216Z,39.60
2019-03-27T12:00:55.075Z,39.60
2019-03-27T12:03:23.847Z,39.80
2019-03-27T12:05:52.399Z,39.00
2019-03-27T12:08:20.779Z,39.60
2019-03-27T12:10:49.267Z,40.90
2019-03-27T12:13:17.645Z,39.10
2019-03-27T12:15:46.036Z,39.20
2019-03-27T12:18:14.844Z,40.00
2019-03-27T12:20:43.238Z,39.50
2019-03-27T12:23:11.670Z,39.70
2019-03-27T12:25:40.103Z,39.70
2019-03-27T12:28:08.484Z,40.40
2019-03-27T12:30:36.882Z,40.50
2019-03-27T12:33:05.274Z,41.00
2019-03-27T12:35:33.723Z,41.00
2019-03-27T12:38:04.397Z,39.40
2019-03-27T12:40:32.145Z,40.50
2019-03-27T12:43:00.569Z,38.90
2019-03-27T12:45:28.903Z,39.50
2019-03-27T12:47:57.432Z,39.50
2019-03-27T12:50:25.739Z,39.00
2019-03-27T12:52:54.144Z,39.50
2019-03-27T12:55:22.737Z,39.60
2019-03-27T12:57:51.141Z,41.30
2019-03-27T13:00:19.550Z,43.50
2019-03-27T13:02:47.919Z,43.30
2019-03-27T13:05:16.329Z,44.40
2019-03-27T13:07:50.202Z,43.70
2019-03-27T13:10:14.835Z,43.00
2019-03-27T13:12:43.337Z,44.40
2019-03-27T13:15:11.720Z,44.50
2019-03-27T13:17:40.128Z,45.00
2019-03-27T13:20:08.551Z,44.90
2019-03-27T13:22:38.409Z,43.80
2019-03-27T13:25:07.410Z,44.80
2019-03-27T13:27:35.868Z,44.30
2019-03-27T13:30:06.574Z,43.60
2019-03-27T13:32:34.969Z,43.60
2019-03-27T13:35:04.415Z,43.60
2019-03-27T13:37:32.129Z,44.00
2019-03-27T13:40:00.585Z,43.70
2019-03-27T13:42:29.134Z,44.30
2019-03-27T13:44:57.584Z,43.80
2019-03-27T13:47:26.058Z,45.50
2019-03-27T13:49:54.421Z,47.40
2019-03-27T13:52:22.797Z,48.00
2019-03-27T13:54:51.206Z,48.10
2019-03-27T13:57:19.604Z,47.20
2019-03-27T13:59:48.026Z,48.80
2019-03-27T14:02:16.454Z,48.70
2019-03-27T14:04:44.864Z,49.00
2019-03-27T14:07:13.399Z,48.10
2019-03-27T14:09:41.789Z,49.00
2019-03-27T14:12:10.194Z,49.70
2019-03-27T14:14:49.570Z,50.10
2019-03-27T14:17:08.647Z,49.50
2019-03-27T14:19:37.095Z,50.70
2019-03-27T14:22:05.607Z,50.90
2019-03-27T14:24:33.973Z,50.50
2019-03-27T14:27:02.359Z,51.60
2019-03-27T14:29:30.770Z,51.40
2019-03-27T14:31:59.189Z,51.00
2019-03-27T14:34:27.582Z,51.50
2019-03-27T14:36:55.953Z,52.30
2019-03-27T14:39:24.370Z,51.90
2019-03-27T14:41:52.766Z,51.10
2019-03-27T14:44:21.185Z,51.50
2019-03-27T14:46:49.579Z,51.60
2019-03-27T14:49:18.023Z,51.30
2019-03-27T14:51:46.419Z,50.10
2019-03-27T14:54:14.814Z,51.10
2019-03-27T14:56:43.217Z,51.80
2019-03-27T14:59:11.591Z,51.40
2019-03-27T15:01:40.010Z,50.60
2019-03-27T15:04:08.385Z,51.00
2019-03-27T15:06:36.828Z,51.60
2019-03-27T15:09:07.354Z,51.60
2019-03-27T15:11:35.750Z,52.80
2019-03-27T15:14:04.153Z,53.20
2019-03-27T15:16:32.638Z,54.30
2019-03-27T15:19:00.953Z,53.60
2019-03-27T15:21:29.373Z,54.30
2019-03-27T15:23:57.842Z,55.30
2019-03-27T15:26:26.241Z,55.80
2019-03-27T15:28:54.643Z,55.40
2019-03-27T15:31:23.061Z,56.00
2019-03-27T15:33:51.493Z,56.00
2019-03-27T15:36:19.845Z,56.10
2019-03-27T15:38:48.214Z,56.40
2019-03-27T15:41:16.616Z,57.20
2019-03-27T15:43:45.028Z,57.80
2019-03-27T15:46:13.443Z,59.20
2019-03-27T15:48:41.809Z,57.60
2019-03-27T15:51:10.262Z,57.90
2019-03-27T15:53:38.672Z,58.10
2019-03-27T15:56:07.080Z,58.10
2019-03-27T15:58:35.477Z,58.50
2019-03-27T16:01:04.246Z,58.80
2019-03-27T16:03:32.624Z,59.10
2019-03-27T16:06:01.026Z,59.40
2019-03-27T16:08:29.461Z,59.70
2019-03-27T16:10:57.841Z,59.80
2019-03-27T16:13:26.203Z,60.50
2019-03-27T16:15:54.646Z,61.10
2019-03-27T16:18:23.231Z,61.40
2019-03-27T16:20:51.639Z,61.40
2019-03-27T16:23:20.045Z,62.30
2019-03-27T16:25:48.425Z,62.50
2019-03-27T16:28:16.808Z,63.00
2019-03-27T16:30:45.222Z,63.50
2019-03-27T16:33:13.628Z,63.80
2019-03-27T16:35:42.047Z,64.40
2019-03-27T16:38:10.492Z,64.50
2019-03-27T16:40:44.952Z,64.80
2019-03-27T16:43:13.325Z,65.50
2019-03-27T16:45:41.814Z,66.50
2019-03-27T16:48:10.278Z,66.30
2019-03-27T16:50:38.711Z,67.60
2019-03-27T16:53:07.146Z,67.30
2019-03-27T16:55:35.541Z,67.80
2019-03-27T16:58:03.945Z,67.80
2019-03-27T17:00:32.321Z,67.80
2019-03-27T17:03:00.873Z,68.40
2019-03-27T17:05:29.265Z,68.10
2019-03-27T17:07:57.672Z,68.40
2019-03-27T17:10:26.078Z,68.70
2019-03-27T17:12:54.445Z,69.70
2019-03-27T17:15:22.849Z,69.60
2019-03-27T17:17:51.229Z,70.20
2019-03-27T17:20:19.639Z,70.50
2019-03-27T17:22:48.013Z,70.10
2019-03-27T17:25:16.400Z,69.90
2019-03-27T17:27:44.817Z,69.80
2019-03-27T17:30:14.389Z,71.10
2019-03-27T17:32:42.739Z,69.90
2019-03-27T17:35:11.121Z,70.10
2019-03-27T17:37:39.518Z,70.10
2019-03-27T17:40:07.930Z,69.90
2019-03-27T17:42:36.339Z,70.00
2019-03-27T17:45:06.286Z,69.30
2019-03-27T17:47:34.696Z,70.20
2019-03-27T17:50:03.267Z,70.60
2019-03-27T17:52:31.687Z,71.00
2019-03-27T17:55:00.259Z,72.50
2019-03-27T17:57:28.876Z,72.20
2019-03-27T17:59:57.256Z,73.60
2019-03-27T18:02:26.767Z,71.80
2019-03-27T18:04:55.211Z,72.30
2019-03-27T18:07:23.652Z,73.10
2019-03-27T18:09:52.074Z,72.10
2019-03-27T18:12:20.465Z,71.80
2019-03-27T18:14:48.874Z,72.60
2019-03-27T18:17:17.381Z,72.30
2019-03-27T18:19:45.789Z,72.40
2019-03-27T18:22:14.197Z,72.80
2019-03-27T18:24:42.630Z,72.50
2019-03-27T18:27:11.043Z,72.50
2019-03-27T18:29:39.487Z,71.50
2019-03-27T18:32:07.861Z,71.50
2019-03-27T18:34:36.438Z,71.40
2019-03-27T18:37:04.818Z,71.90
2019-03-27T18:39:33.219Z,71.80
2019-03-27T18:42:01.594Z,72.30
2019-03-27T18:44:29.968Z,71.90
2019-03-27T18:46:58.374Z,72.10
2019-03-27T18:49:26.786Z,72.30
2019-03-27T18:51:55.166Z,74.70
2019-03-27T18:54:23.708Z,74.40
2019-03-27T18:56:52.149Z,73.40
2019-03-27T18:59:20.560Z,73.70
2019-03-27T19:01:49.070Z,73.10
2019-03-27T19:04:17.669Z,73.80
2019-03-27T19:06:46.033Z,72.90
2019-03-27T19:09:14.454Z,73.30
2019-03-27T19:11:43.297Z,73.70
2019-03-27T19:14:11.752Z,74.10
2019-03-27T19:16:40.143Z,74.60
2019-03-27T19:19:08.515Z,75.10
2019-03-27T19:21:36.945Z,75.10
2019-03-27T19:24:13.531Z,75.90
2019-03-27T19:26:35.402Z,75.80
2019-03-27T19:29:03.798Z,75.50
2019-03-27T19:31:32.279Z,75.50
2019-03-27T19:34:00.679Z,76.50
2019-03-27T19:36:29.110Z,76.30
2019-03-27T19:38:57.486Z,77.00
2019-03-27T19:41:25.891Z,77.90
2019-03-27T19:43:54.297Z,77.40
2019-03-27T19:46:22.670Z,77.10
2019-03-27T19:48:51.089Z,77.20
2019-03-27T19:51:19.496Z,77.30
2019-03-27T19:53:48.004Z,77.80
2019-03-27T19:56:16.419Z,78.60
2019-03-27T19:58:44.810Z,78.70
2019-03-27T20:01:13.219Z,79.00
2019-03-27T20:03:41.652Z,79.80
2019-03-27T20:06:10.103Z,79.80
2019-03-27T20:08:38.541Z,80.00
2019-03-27T20:11:06.934Z,79.90
2019-03-27T20:13:35.361Z,79.60
2019-03-27T20:16:03.786Z,80.30
2019-03-27T20:18:32.193Z,80.10
2019-03-27T20:21:00.680Z,80.50
2019-03-27T20:23:29.142Z,80.90
2019-03-27T20:25:57.567Z,81.00
2019-03-27T20:28:25.906Z,81.50
2019-03-27T20:30:54.314Z,81.60
2019-03-27T20:33:22.707Z,81.60
2019-03-27T20:35:51.193Z,81.70
2019-03-27T20:38:19.589Z,82.10
2019-03-27T20:40:47.999Z,81.90
2019-03-27T20:43:16.403Z,83.00
2019-03-27T20:45:44.801Z,82.40
2019-03-27T20:48:13.235Z,82.10
2019-03-27T20:50:41.732Z,81.90
2019-03-27T20:53:10.105Z,82.60
2019-03-27T20:55:38.537Z,82.90
2019-03-27T20:58:06.941Z,82.90
2019-03-27T21:00:35.377Z,83.20
2019-03-27T21:03:03.881Z,83.90
2019-03-27T21:05:34.976Z,84.60
2019-03-27T21:08:02.369Z,85.00
2019-03-27T21:10:30.761Z,85.20
2019-03-27T21:12:59.173Z,85.10
2019-03-27T21:15:27.573Z,85.10
2019-03-27T21:17:55.947Z,85.10
2019-03-27T21:20:24.341Z,85.30
2019-03-27T21:22:52.776Z,85.50
2019-03-27T21:25:21.226Z,85.50
2019-03-27T21:27:49.615Z,85.30
2019-03-27T21:30:18.010Z,86.40
2019-03-27T21:32:46.442Z,86.40
2019-03-27T21:35:14.846Z,86.50
2019-03-27T21:37:43.246Z,86.80
2019-03-27T21:40:11.760Z,86.40
2019-03-27T21:42:40.246Z,86.50
2019-03-27T21:45:09.234Z,86.40
2019-03-27T21:47:37.633Z,85.90
2019-03-27T21:50:07.111Z,85.40
2019-03-27T21:52:35.513Z,85.90
2019-03-27T21:55:21.501Z,86.40
2019-03-27T21:57:37.850Z,86.30
2019-03-27T22:00:07.525Z,86.40
2019-03-27T22:02:35.886Z,86.80
2019-03-27T22:05:05.338Z,87.00
2019-03-27T22:07:33.755Z,87.00
2019-03-27T22:10:02.237Z,87.20
2019-03-27T22:12:30.600Z,87.20
2019-03-27T22:14:58.983Z,87.20
2019-03-27T22:17:27.368Z,87.40
2019-03-27T22:19:55.779Z,87.60
2019-03-27T22:22:24.182Z,87.80
2019-03-27T22:24:52.629Z,87.60
2019-03-27T22:27:20.994Z,87.40
2019-03-27T22:29:49.472Z,87.60
2019-03-27T22:32:18.050Z,88.00
2019-03-27T22:34:46.470Z,88.20
2019-03-27T22:37:15.015Z,88.40
2019-03-27T22:39:43.423Z,88.20
2019-03-27T22:42:11.803Z,88.80
2019-03-27T22:44:40.224Z,88.40
2019-03-27T22:47:08.597Z,88.70
2019-03-27T22:49:37.003Z,88.80
2019-03-27T22:52:05.405Z,88.90
2019-03-27T22:54:33.839Z,89.20
2019-03-27T22:57:02.205Z,89.00
2019-03-27T22:59:30.609Z,89.40
2019-03-27T23:01:58.972Z,89.10
2019-03-27T23:04:27.420Z,89.20
2019-03-27T23:06:55.827Z,89.20
2019-03-27T23:09:24.201Z,89.20
2019-03-27T23:11:52.590Z,89.40
2019-03-27T23:14:20.973Z,89.00
2019-03-27T23:16:49.389Z,89.00
2019-03-27T23:19:17.767Z,88.60
2019-03-27T23:21:46.206Z,88.10
2019-03-27T23:24:14.731Z,88.50
2019-03-27T23:26:43.112Z,90.10
2019-03-27T23:29:11.526Z,90.00
2019-03-27T23:31:39.929Z,89.80
2019-03-27T23:34:08.438Z,89.50
2019-03-27T23:36:36.852Z,90.30
2019-03-27T23:39:07.101Z,89.20
2019-03-27T23:41:35.529Z,89.00
2019-03-27T23:44:04.031Z,89.10
2019-03-27T23:46:32.587Z,89.70
2019-03-27T23:49:03.055Z,90.00
2019-03-27T23:51:31.421Z,90.90
2019-03-27T23:53:59.832Z,90.90
2019-03-27T23:56:28.205Z,90.70
2019-03-27T23:58:56.638Z,90.70
